createdAt,value
2024-03-12T00:01:48.609Z,96390.56
2024-03-12T00:04:17.772Z,96398.19
2024-03-12T00:06:46.055Z,96399.44
2024-03-12T00:09:13.927Z,96391.28
2024-03-12T00:11:43.459Z,96392.53
2024-03-12T00:14:12.454Z,96365.53
2024-03-12T00:16:41.785Z,96402.34
2024-03-12T00:19:11.455Z,96402.81
2024-03-12T00:21:39.182Z,96401.59
2024-03-12T00:24:07.217Z,96409.00
2024-03-12T00:26:34.878Z,96411.28
2024-03-12T00:29:02.750Z,96404.97
2024-03-12T00:31:32.466Z,96415.84
2024-03-12T00:34:01.518Z,96417.09
2024-03-12T00:36:29.987Z,96423.66
2024-03-12T00:38:58.720Z,96425.28
2024-03-12T00:41:26.364Z,96417.53
2024-03-12T00:43:55.247Z,96427.56
2024-03-12T00:46:23.516Z,96425.16
2024-03-12T00:48:53.086Z,96439.03
2024-03-12T00:51:21.246Z,96416.84
2024-03-12T00:53:48.950Z,96431.94
2024-03-12T00:56:17.477Z,96431.53
2024-03-12T00:58:45.895Z,96410.00
2024-03-12T01:01:16.385Z,96433.59
2024-03-12T01:03:47.725Z,96439.34
2024-03-12T01:06:16.929Z,96428.13
2024-03-12T01:08:44.540Z,96437.53
2024-03-12T01:11:14.215Z,96442.47
2024-03-12T01:13:41.963Z,96438.63
2024-03-12T01:16:09.719Z,96447.81
2024-03-12T01:18:37.495Z,96445.41
2024-03-12T01:21:05.672Z,96441.53
2024-03-12T01:23:35.893Z,96441.56
2024-03-12T01:26:07.701Z,96441.19
2024-03-12T01:28:36.272Z,96442.22
2024-03-12T01:31:04.356Z,96447.53
2024-03-12T01:33:32.138Z,96446.31
2024-03-12T01:36:19.423Z,96441.25
2024-03-12T01:38:49.790Z,96457.38
2024-03-12T01:41:18.005Z,96455.13
2024-03-12T01:43:45.818Z,96460.88
2024-03-12T01:46:13.525Z,96457.25
2024-03-12T01:48:41.600Z,96462.56
2024-03-12T01:51:09.323Z,96465.41
2024-03-12T01:53:37.056Z,96468.28
2024-03-12T01:56:06.456Z,96471.97
2024-03-12T01:58:34.384Z,96468.72
2024-03-12T02:01:02.172Z,96481.75
2024-03-12T02:03:34.689Z,96483.22
2024-03-12T02:06:02.789Z,96474.69
2024-03-12T02:08:33.358Z,96483.63
2024-03-12T02:11:01.831Z,96484.84
2024-03-12T02:13:31.118Z,96493.66
2024-03-12T02:15:59.227Z,96490.16
2024-03-12T02:18:26.938Z,96492.03
2024-03-12T02:20:54.587Z,96492.03
2024-03-12T02:23:35.953Z,96491.63
2024-03-12T02:26:04.418Z,96500.19
2024-03-12T02:28:32.585Z,96499.81
2024-03-12T02:31:00.837Z,96503.50
2024-03-12T02:33:28.743Z,96512.50
2024-03-12T02:35:56.688Z,96503.69
2024-03-12T02:38:25.684Z,96510.22
2024-03-12T02:40:53.287Z,96507.56
2024-03-12T02:43:20.941Z,96509.84
2024-03-12T02:45:48.581Z,96507.81
2024-03-12T02:48:16.616Z,96517.00
2024-03-12T02:50:44.430Z,96510.06
2024-03-12T02:53:12.157Z,96507.03
2024-03-12T02:55:41.954Z,96517.44
2024-03-12T02:58:10.178Z,96519.50
2024-03-12T03:00:37.923Z,96523.38
2024-03-12T03:03:05.986Z,96524.41
2024-03-12T03:05:33.597Z,96515.41
2024-03-12T03:08:01.476Z,96513.56
2024-03-12T03:10:29.114Z,96516.88
2024-03-12T03:12:58.162Z,96509.69
2024-03-12T03:15:25.838Z,96515.84
2024-03-12T03:17:53.984Z,96517.88
2024-03-12T03:20:21.627Z,96513.78
2024-03-12T03:22:49.234Z,96514.22
2024-03-12T03:25:17.136Z,96532.97
2024-03-12T03:27:44.891Z,96531.56
2024-03-12T03:30:19.037Z,96530.72
2024-03-12T03:32:47.434Z,96523.78
2024-03-12T03:35:15.161Z,96529.28
2024-03-12T03:37:43.861Z,96527.28
2024-03-12T03:40:18.739Z,96523.00
2024-03-12T03:42:46.578Z,96526.88
2024-03-12T03:45:15.688Z,96530.50
2024-03-12T03:47:43.278Z,96546.84
2024-03-12T03:50:12.199Z,96518.69
2024-03-12T03:52:39.857Z,96563.97
2024-03-12T03:55:08.831Z,96558.47
2024-03-12T03:57:36.524Z,96563.38
2024-03-12T04:00:14.028Z,96566.66
2024-03-12T04:02:44.686Z,96566.63
2024-03-12T04:05:13.266Z,96580.09
2024-03-12T04:07:41.985Z,96580.69
2024-03-12T04:10:13.434Z,96584.19
2024-03-12T04:12:41.727Z,96577.88
2024-03-12T04:15:10.985Z,96598.03
2024-03-12T04:17:39.109Z,96596.84
2024-03-12T04:20:10.868Z,96602.72
2024-03-12T04:22:38.645Z,96609.88
2024-03-12T04:25:08.466Z,96608.25
2024-03-12T04:27:37.848Z,96603.16
2024-03-12T04:30:06.611Z,96611.28
2024-03-12T04:32:34.345Z,96611.72
2024-03-12T04:35:05.653Z,96619.44
2024-03-12T04:37:34.655Z,96633.50
2024-03-12T04:40:07.754Z,96625.53
2024-03-12T04:42:36.090Z,96643.50
2024-03-12T04:45:05.818Z,96633.31
2024-03-12T04:47:33.908Z,96632.88
2024-03-12T04:50:02.133Z,96638.59
2024-03-12T04:52:29.785Z,96635.34
2024-03-12T04:54:59.197Z,96646.16
2024-03-12T04:57:26.928Z,96638.38
2024-03-12T04:59:55.668Z,96642.47
2024-03-12T05:02:23.801Z,96639.59
2024-03-12T05:04:51.487Z,96645.69
2024-03-12T05:07:19.178Z,96658.16
2024-03-12T05:09:46.868Z,96657.53
2024-03-12T05:12:15.938Z,96654.06
2024-03-12T05:14:44.585Z,96664.66
2024-03-12T05:17:12.200Z,96668.53
2024-03-12T05:19:39.860Z,96665.88
2024-03-12T05:22:08.297Z,96665.88
2024-03-12T05:24:36.705Z,96669.13
2024-03-12T05:27:05.194Z,96651.75
2024-03-12T05:29:37.908Z,96673.19
2024-03-12T05:32:18.839Z,96678.47
2024-03-12T05:34:48.577Z,96681.97
2024-03-12T05:37:29.995Z,96681.31
2024-03-12T05:40:14.700Z,96687.44
2024-03-12T05:43:00.142Z,96688.28
2024-03-12T05:45:46.888Z,96687.44
2024-03-12T05:48:14.847Z,96689.69
2024-03-12T05:50:42.935Z,96696.59
2024-03-12T05:53:10.710Z,96698.47
2024-03-12T05:55:41.445Z,96698.88
2024-03-12T05:58:11.225Z,96705.81
2024-03-12T06:00:40.677Z,96708.06
2024-03-12T06:03:08.346Z,96710.56
2024-03-12T06:05:35.950Z,96710.75
2024-03-12T06:08:03.600Z,96715.91
2024-03-12T06:10:32.340Z,96714.47
2024-03-12T06:13:00.009Z,96715.53
2024-03-12T06:15:27.693Z,96719.00
2024-03-12T06:17:56.756Z,96727.19
2024-03-12T06:20:25.293Z,96723.09
2024-03-12T06:22:53.481Z,96729.47
2024-03-12T06:25:21.409Z,96735.59
2024-03-12T06:27:50.231Z,96733.56
2024-03-12T06:30:19.549Z,96742.38
2024-03-12T06:32:47.255Z,96747.88
2024-03-12T06:35:16.335Z,96746.06
2024-03-12T06:37:43.976Z,96753.44
2024-03-12T06:40:12.610Z,96749.13
2024-03-12T06:42:42.920Z,96756.47
2024-03-12T06:45:12.859Z,96754.28
2024-03-12T06:47:42.696Z,96763.06
2024-03-12T06:50:11.407Z,96770.00
2024-03-12T06:52:40.389Z,96768.97
2024-03-12T06:55:16.854Z,96770.63
2024-03-12T06:57:49.221Z,96769.41
2024-03-12T07:00:27.621Z,96774.53
2024-03-12T07:02:55.913Z,96777.78
2024-03-12T07:05:24.183Z,96777.56
2024-03-12T07:07:54.789Z,96778.19
2024-03-12T07:10:23.814Z,96753.22
2024-03-12T07:12:51.942Z,96782.66
2024-03-12T07:15:20.832Z,96778.97
2024-03-12T07:17:48.837Z,96780.56
2024-03-12T07:20:17.130Z,96791.78
2024-03-12T07:22:46.178Z,96790.69
2024-03-12T07:25:17.124Z,96788.81
2024-03-12T07:27:45.009Z,96798.56
2024-03-12T07:30:14.147Z,96797.50
2024-03-12T07:32:41.901Z,96796.88
2024-03-12T07:35:10.105Z,96801.13
2024-03-12T07:37:39.539Z,96799.03
2024-03-12T07:40:10.672Z,96801.03
2024-03-12T07:42:42.445Z,96806.09
2024-03-12T07:45:11.046Z,96802.53
2024-03-12T07:47:40.697Z,96817.13
2024-03-12T07:50:09.327Z,96809.28
2024-03-12T07:52:37.169Z,96816.81
2024-03-12T07:55:07.198Z,96815.09
2024-03-12T07:57:36.497Z,96818.22
2024-03-12T08:00:12.523Z,96831.34
2024-03-12T08:02:40.804Z,96817.06
2024-03-12T08:05:08.668Z,96817.81
2024-03-12T08:07:36.399Z,96819.97
2024-03-12T08:10:06.828Z,96816.00
2024-03-12T08:12:34.886Z,96816.91
2024-03-12T08:15:02.839Z,96815.56
2024-03-12T08:17:32.085Z,96820.78
2024-03-12T08:19:59.780Z,96813.41
2024-03-12T08:22:28.229Z,96820.38
2024-03-12T08:24:56.225Z,96822.47
2024-03-12T08:27:23.954Z,96822.69
2024-03-12T08:29:51.890Z,96806.97
2024-03-12T08:32:22.214Z,96820.38
2024-03-12T08:34:52.695Z,96816.47
2024-03-12T08:37:20.448Z,96821.28
2024-03-12T08:39:48.243Z,96813.41
2024-03-12T08:42:15.945Z,96819.03
2024-03-12T08:44:44.461Z,96814.31
2024-03-12T08:47:12.620Z,96809.13
2024-03-12T08:49:40.459Z,96791.50
2024-03-12T08:52:09.749Z,96812.69
2024-03-12T08:54:37.521Z,96819.00
2024-03-12T08:57:05.327Z,96808.63
2024-03-12T08:59:33.028Z,96822.28
2024-03-12T09:02:01.196Z,96819.97
2024-03-12T09:04:31.700Z,96810.88
2024-03-12T09:07:00.396Z,96811.81
2024-03-12T09:09:30.364Z,96815.16
2024-03-12T09:11:59.181Z,96814.50
2024-03-12T09:14:26.959Z,96819.50
2024-03-12T09:16:54.619Z,96823.38
2024-03-12T09:19:23.258Z,96819.66
2024-03-12T09:21:51.188Z,96822.81
2024-03-12T09:24:20.153Z,96826.22
2024-03-12T09:26:49.165Z,96820.97
2024-03-12T09:29:16.958Z,96826.66
2024-03-12T09:31:44.581Z,96831.81
2024-03-12T09:34:13.522Z,96838.13
2024-03-12T09:36:41.318Z,96833.06
2024-03-12T09:39:12.218Z,96829.34
2024-03-12T09:41:43.397Z,96836.50
2024-03-12T09:44:13.147Z,96833.94
2024-03-12T09:46:41.042Z,96832.31
2024-03-12T09:49:09.860Z,96837.19
2024-03-12T09:51:37.544Z,96835.78
2024-03-12T09:54:05.651Z,96833.38
2024-03-12T09:56:34.710Z,96836.16
2024-03-12T09:59:02.389Z,96840.34
2024-03-12T10:01:31.430Z,96846.41
2024-03-12T10:03:59.120Z,96835.50
2024-03-12T10:06:27.056Z,96847.66
2024-03-12T10:08:58.193Z,96836.94
2024-03-12T10:11:25.950Z,96845.91
2024-03-12T10:13:58.055Z,96852.19
2024-03-12T10:16:26.798Z,96855.13
2024-03-12T10:19:12.708Z,96854.16
2024-03-12T10:21:41.659Z,96854.19
2024-03-12T10:24:14.432Z,96855.31
2024-03-12T10:26:43.192Z,96857.63
2024-03-12T10:29:12.187Z,96854.94
2024-03-12T10:31:44.757Z,96848.38
2024-03-12T10:34:18.638Z,96853.56
2024-03-12T10:36:47.281Z,96853.34
2024-03-12T10:39:27.034Z,96858.03
2024-03-12T10:41:57.504Z,96861.75
2024-03-12T10:44:25.239Z,96864.34
2024-03-12T10:46:53.678Z,96865.59
2024-03-12T10:49:27.381Z,96861.41
2024-03-12T10:51:55.363Z,96859.66
2024-03-12T10:54:23.975Z,96863.88
2024-03-12T10:56:52.236Z,96856.63
2024-03-12T10:59:22.471Z,96865.34
2024-03-12T11:01:50.322Z,96856.34
2024-03-12T11:04:18.467Z,96859.00
2024-03-12T11:06:49.251Z,96859.56
2024-03-12T11:09:22.902Z,96855.44
2024-03-12T11:11:51.492Z,96861.19
2024-03-12T11:14:19.193Z,96850.06
2024-03-12T11:16:46.814Z,96849.22
2024-03-12T11:19:23.283Z,96845.28
2024-03-12T11:21:52.815Z,96849.25
2024-03-12T11:24:27.172Z,96846.13
2024-03-12T11:26:55.758Z,96846.03
2024-03-12T11:30:06.504Z,96847.72
2024-03-12T11:32:34.947Z,96842.00
2024-03-12T11:35:04.947Z,96845.72
2024-03-12T11:37:34.154Z,96846.00
2024-03-12T11:40:27.636Z,96852.66
2024-03-12T11:42:57.126Z,96847.22
2024-03-12T11:45:38.839Z,96850.97
2024-03-12T11:48:08.764Z,96837.84
2024-03-12T11:50:38.078Z,96840.16
2024-03-12T11:53:18.874Z,96838.00
2024-03-12T11:56:02.839Z,96839.28
2024-03-12T11:58:33.655Z,96838.06
2024-03-12T12:01:02.518Z,96843.34
2024-03-12T12:03:30.401Z,96846.88
2024-03-12T12:05:58.123Z,96835.28
2024-03-12T12:08:27.332Z,96836.34
2024-03-12T12:11:01.115Z,96842.19
2024-03-12T12:13:28.960Z,96843.81
2024-03-12T12:16:00.825Z,96845.13
2024-03-12T12:18:28.782Z,96838.03
2024-03-12T12:20:59.071Z,96838.13
2024-03-12T12:23:28.723Z,96836.63
2024-03-12T12:25:57.150Z,96828.41
2024-03-12T12:28:26.605Z,96831.41
2024-03-12T12:30:56.779Z,96834.22
2024-03-12T12:33:26.506Z,96837.22
2024-03-12T12:35:55.210Z,96841.88
2024-03-12T12:38:24.711Z,96846.91
2024-03-12T12:40:54.802Z,96843.97
2024-03-12T12:43:22.918Z,96841.56
2024-03-12T12:45:51.145Z,96847.06
2024-03-12T12:48:19.651Z,96842.66
2024-03-12T12:50:54.642Z,96836.66
2024-03-12T12:53:22.816Z,96846.00
2024-03-12T12:55:58.373Z,96846.56
2024-03-12T12:58:27.257Z,96844.13
2024-03-12T13:01:02.132Z,96845.16
2024-03-12T13:03:35.548Z,96846.53
2024-03-12T13:06:14.360Z,96846.16
2024-03-12T13:08:43.093Z,96838.94
2024-03-12T13:11:13.633Z,96840.16
2024-03-12T13:13:42.587Z,96836.31
2024-03-12T13:16:18.918Z,96848.56
2024-03-12T13:18:48.019Z,96847.00
2024-03-12T13:21:17.257Z,96851.31
2024-03-12T13:23:46.052Z,96831.53
2024-03-12T13:26:16.178Z,96858.34
2024-03-12T13:28:44.359Z,96858.06
2024-03-12T13:31:12.449Z,96863.53
2024-03-12T13:33:40.470Z,96858.91
2024-03-12T13:36:11.007Z,96857.69
2024-03-12T13:38:40.756Z,96863.50
2024-03-12T13:41:08.784Z,96865.44
2024-03-12T13:43:37.998Z,96864.78
2024-03-12T13:46:07.383Z,96872.16
2024-03-12T13:48:37.747Z,96863.31
2024-03-12T13:51:08.780Z,96863.09
2024-03-12T13:53:37.571Z,96865.59
2024-03-12T13:56:06.159Z,96865.00
2024-03-12T13:58:34.286Z,96870.38
2024-03-12T14:01:03.357Z,96879.81
2024-03-12T14:03:31.992Z,96871.53
2024-03-12T14:06:00.669Z,96889.59
2024-03-12T14:08:28.683Z,96877.94
2024-03-12T14:10:58.079Z,96880.84
2024-03-12T14:13:27.994Z,96883.75
2024-03-12T14:15:55.725Z,96885.56
2024-03-12T14:18:24.738Z,96875.56
2024-03-12T14:20:54.734Z,96873.81
2024-03-12T14:23:22.379Z,96868.72
2024-03-12T14:25:50.838Z,96878.25
2024-03-12T14:28:18.506Z,96876.97
2024-03-12T14:30:46.547Z,96884.31
2024-03-12T14:33:14.230Z,96875.00
2024-03-12T14:35:43.252Z,96883.53
2024-03-12T14:38:10.948Z,96882.16
2024-03-12T14:40:38.526Z,96883.69
2024-03-12T14:43:06.217Z,96897.28
2024-03-12T14:45:33.976Z,96888.19
2024-03-12T14:48:03.540Z,96886.91
2024-03-12T14:50:31.228Z,96885.03
2024-03-12T14:53:00.253Z,96886.19
2024-03-12T14:55:27.963Z,96892.63
2024-03-12T14:57:55.788Z,96890.50
2024-03-12T15:00:24.475Z,96890.66
2024-03-12T15:02:52.166Z,96889.34
2024-03-12T15:05:21.564Z,96883.44
2024-03-12T15:07:49.644Z,96881.53
2024-03-12T15:10:19.054Z,96890.69
2024-03-12T15:12:46.901Z,96889.22
2024-03-12T15:15:16.083Z,96880.75
2024-03-12T15:17:45.954Z,96887.56
2024-03-12T15:20:15.950Z,96884.81
2024-03-12T15:22:44.322Z,96880.31
2024-03-12T15:25:13.228Z,96887.53
2024-03-12T15:27:43.345Z,96886.94
2024-03-12T15:30:11.909Z,96885.78
2024-03-12T15:32:40.347Z,96890.75
2024-03-12T15:35:11.337Z,96898.91
2024-03-12T15:37:39.033Z,96894.81
2024-03-12T15:40:09.215Z,96901.13
2024-03-12T15:42:39.289Z,96896.00
2024-03-12T15:45:11.930Z,96899.84
2024-03-12T15:47:40.782Z,96895.06
2024-03-12T15:50:09.363Z,96904.66
2024-03-12T15:52:37.059Z,96907.19
2024-03-12T15:55:05.411Z,96912.19
2024-03-12T15:57:33.887Z,96882.22
2024-03-12T16:00:08.104Z,96903.91
2024-03-12T16:02:37.085Z,96910.53
2024-03-12T16:05:06.316Z,96906.81
2024-03-12T16:07:35.442Z,96911.03
2024-03-12T16:10:03.556Z,96913.75
2024-03-12T16:12:31.269Z,96917.78
2024-03-12T16:14:58.912Z,96919.19
2024-03-12T16:17:30.815Z,96914.63
2024-03-12T16:20:00.909Z,96888.50
2024-03-12T16:22:28.600Z,96921.50
2024-03-12T16:24:56.275Z,96922.75
2024-03-12T16:27:23.905Z,96929.38
2024-03-12T16:29:52.404Z,96933.91
2024-03-12T16:32:20.076Z,96926.66
2024-03-12T16:34:47.732Z,96924.66
2024-03-12T16:37:16.975Z,96927.34
2024-03-12T16:39:45.802Z,96924.53
2024-03-12T16:42:14.114Z,96902.34
2024-03-12T16:44:41.757Z,96932.91
2024-03-12T16:47:12.176Z,96925.22
2024-03-12T16:49:39.901Z,96932.84
2024-03-12T16:52:07.950Z,96935.66
2024-03-12T16:54:37.944Z,96939.63
2024-03-12T16:57:06.446Z,96934.16
2024-03-12T17:02:19.144Z,96932.59
2024-03-12T17:04:47.366Z,96947.53
2024-03-12T17:07:16.850Z,96941.31
2024-03-12T17:09:47.211Z,96931.59
2024-03-12T17:12:16.110Z,96949.75
2024-03-12T17:14:44.415Z,96946.31
2024-03-12T17:17:13.280Z,96956.78
2024-03-12T17:19:41.343Z,96953.03
2024-03-12T17:22:11.521Z,96959.56
2024-03-12T17:24:40.743Z,96961.25
2024-03-12T17:27:11.423Z,96958.78
2024-03-12T17:29:42.562Z,96967.06
2024-03-12T17:32:12.074Z,96956.44
2024-03-12T17:34:40.411Z,96975.53
2024-03-12T17:37:09.600Z,96982.13
2024-03-12T17:39:38.344Z,96984.22
2024-03-12T17:42:09.602Z,96984.81
2024-03-12T17:44:39.725Z,96985.63
2024-03-12T17:47:10.174Z,96993.28
2024-03-12T17:49:40.346Z,96985.69
2024-03-12T17:52:09.485Z,96970.00
2024-03-12T17:54:39.559Z,96987.84
2024-03-12T17:57:10.880Z,96982.25
2024-03-12T17:59:41.103Z,96997.03
2024-03-12T18:02:13.382Z,96991.16
2024-03-12T18:04:41.810Z,96994.72
2024-03-12T18:07:21.121Z,96994.78
2024-03-12T18:09:52.558Z,96994.41
2024-03-12T18:12:22.490Z,96983.03
2024-03-12T18:14:51.560Z,96991.41
2024-03-12T18:17:21.600Z,96995.91
2024-03-12T18:19:49.389Z,96999.84
2024-03-12T18:22:17.490Z,97009.09
2024-03-12T18:24:45.824Z,97005.25
2024-03-12T18:27:13.645Z,97008.78
2024-03-12T18:29:44.090Z,97013.09
2024-03-12T18:32:15.946Z,97008.41
2024-03-12T18:34:43.891Z,97015.81
2024-03-12T18:37:11.654Z,96987.75
2024-03-12T18:39:40.158Z,97007.63
2024-03-12T18:42:08.203Z,97002.88
2024-03-12T18:44:38.120Z,97014.78
2024-03-12T18:47:06.238Z,97010.88
2024-03-12T18:49:35.959Z,97014.34
2024-03-12T18:52:04.196Z,97019.09
2024-03-12T18:54:32.324Z,97023.41
2024-03-12T18:57:01.121Z,97022.59
2024-03-12T18:59:29.248Z,97026.06
2024-03-12T19:02:03.268Z,97025.28
2024-03-12T19:04:32.081Z,97029.78
2024-03-12T19:07:01.817Z,97022.81
2024-03-12T19:09:32.240Z,97030.19
2024-03-12T19:12:01.760Z,97026.28
2024-03-12T19:14:30.979Z,97031.19
2024-03-12T19:17:01.131Z,97025.22
2024-03-12T19:19:30.582Z,97032.00
2024-03-12T19:21:58.932Z,97032.00
2024-03-12T19:24:28.026Z,97029.78
2024-03-12T19:26:57.625Z,97037.34
2024-03-12T19:29:25.445Z,97020.13
2024-03-12T19:31:53.766Z,97024.50
2024-03-12T19:34:22.179Z,97029.56
2024-03-12T19:36:50.352Z,97029.19
2024-03-12T19:39:18.539Z,97030.00
2024-03-12T19:41:49.167Z,97027.53
2024-03-12T19:44:17.260Z,97033.88
2024-03-12T19:46:45.589Z,97037.78
2024-03-12T19:49:14.720Z,97033.50
2024-03-12T19:51:43.160Z,97027.38
2024-03-12T19:54:17.008Z,97038.47
2024-03-12T19:56:44.789Z,97041.59
2024-03-12T19:59:14.895Z,97042.00
2024-03-12T20:01:43.359Z,97043.25
2024-03-12T20:04:12.276Z,97042.25
2024-03-12T20:06:42.075Z,97048.38
2024-03-12T20:09:23.308Z,97049.81
2024-03-12T20:11:52.321Z,97047.13
2024-03-12T20:14:24.903Z,97048.13
2024-03-12T20:16:52.790Z,97049.97
2024-03-12T20:19:20.971Z,97055.53
2024-03-12T20:21:48.883Z,97051.22
2024-03-12T20:24:18.574Z,97053.69
2024-03-12T20:26:47.467Z,97054.94
2024-03-12T20:29:15.502Z,97054.94
2024-03-12T20:31:45.637Z,97059.22
2024-03-12T20:34:13.501Z,97064.56
2024-03-12T20:36:47.029Z,97060.06
2024-03-12T20:39:14.907Z,97050.88
2024-03-12T20:41:43.167Z,97065.63
2024-03-12T20:44:10.832Z,97060.28
2024-03-12T20:46:38.564Z,97063.34
2024-03-12T20:49:07.638Z,97069.34
2024-03-12T20:51:35.631Z,97065.84
2024-03-12T20:54:04.303Z,97042.13
2024-03-12T20:56:32.076Z,97063.63
2024-03-12T20:58:59.774Z,97072.59
2024-03-12T21:01:27.488Z,97066.47
2024-03-12T21:03:55.732Z,97065.63
2024-03-12T21:06:25.560Z,97068.09
2024-03-12T21:08:53.321Z,97071.59
2024-03-12T21:11:22.125Z,97069.72
2024-03-12T21:13:49.744Z,97064.41
2024-03-12T21:16:17.561Z,97069.06
2024-03-12T21:18:45.334Z,97070.13
2024-03-12T21:21:16.304Z,97066.66
2024-03-12T21:23:46.792Z,97066.66
2024-03-12T21:26:21.487Z,97068.47
2024-03-12T21:28:49.137Z,97066.84
2024-03-12T21:31:17.519Z,97067.91
2024-03-12T21:33:45.348Z,97075.06
2024-03-12T21:36:15.843Z,97071.19
2024-03-12T21:38:44.779Z,97073.25
2024-03-12T21:41:14.070Z,97072.66
2024-03-12T21:43:41.709Z,97077.59
2024-03-12T21:46:09.353Z,97076.78
2024-03-12T21:48:37.058Z,97075.97
2024-03-12T21:51:06.527Z,97080.47
2024-03-12T21:53:34.190Z,97081.06
2024-03-12T21:56:03.175Z,97076.19
2024-03-12T21:58:32.631Z,97078.22
2024-03-12T22:01:00.332Z,97076.81
2024-03-12T22:03:28.208Z,97075.41
2024-03-12T22:05:56.386Z,97079.31
2024-03-12T22:08:24.523Z,97075.81
2024-03-12T22:10:52.448Z,97073.34
2024-03-12T22:13:28.479Z,97074.59
2024-03-12T22:15:59.642Z,97072.75
2024-03-12T22:18:27.265Z,97077.50
2024-03-12T22:20:56.276Z,97074.00
2024-03-12T22:23:28.912Z,97073.19
2024-03-12T22:25:56.762Z,97069.09
2024-03-12T22:28:27.589Z,97072.16
2024-03-12T22:30:55.300Z,97072.38
2024-03-12T22:33:23.180Z,97070.16
2024-03-12T22:35:50.820Z,97064.81
2024-03-12T22:38:19.420Z,97069.75
2024-03-12T22:40:48.012Z,97065.66
2024-03-12T22:43:16.219Z,97068.31
2024-03-12T22:45:45.689Z,97069.34
2024-03-12T22:48:13.778Z,97068.72
2024-03-12T22:50:42.612Z,97063.63
2024-03-12T22:53:10.726Z,97069.38
2024-03-12T22:55:39.481Z,97065.28
2024-03-12T22:58:07.893Z,97061.81
2024-03-12T23:00:42.486Z,97066.09
2024-03-12T23:03:13.807Z,97068.38
2024-03-12T23:05:42.778Z,97067.53
2024-03-12T23:08:13.384Z,97075.16
2024-03-12T23:10:42.846Z,97069.41
2024-03-12T23:13:12.259Z,97053.03
2024-03-12T23:15:40.037Z,97067.38
2024-03-12T23:18:10.424Z,97062.47
2024-03-12T23:20:41.487Z,97060.81
2024-03-12T23:23:09.576Z,97061.47
2024-03-12T23:25:38.224Z,97061.66
2024-03-12T23:28:07.114Z,97067.19
2024-03-12T23:30:34.890Z,97065.56
2024-03-12T23:33:03.160Z,97071.09
2024-03-12T23:35:31.071Z,97063.94
2024-03-12T23:38:00.188Z,97071.31
2024-03-12T23:40:28.956Z,97062.09
2024-03-12T23:42:57.219Z,97068.25
2024-03-12T23:45:24.931Z,97066.44
2024-03-12T23:47:53.501Z,97059.91
2024-03-12T23:50:21.199Z,97051.53
2024-03-12T23:52:49.721Z,97057.25
2024-03-12T23:55:19.027Z,97072.41
2024-03-12T23:57:47.065Z,97067.31
